Time,TemperatureF,DewpointF,PressureIn,WindDirection,WindDirectionDegrees,WindSpeedMPH,WindSpeedGustMPH,Humidity,HourlyPrecipIn,Conditions,Clouds,dailyrainin,SoftwareType,DateUTC
2013-04-01 21:15:00,68.3,31.1,29.68,South,180,0.0,0.0,25,0.00,,---,0.00,VWS V14.00,2013-04-02 02:15:00,
2013-04-01 21:20:00,63.1,29.5,29.67,South,174,0.0,0.0,28,0.00,,---,0.00,VWS V14.00,2013-04-02 02:20:00,
2013-04-01 21:25:00,62.0,29.4,29.67,South,174,0.0,0.0,29,0.00,,---,0.00,VWS V14.00,2013-04-02 02:25:00,
2013-04-01 21:30:00,63.4,43.4,29.69,ENE,78,0.0,0.0,48,0.00,,---,0.00,VWS V14.00,2013-04-02 02:30:00,
2013-04-01 21:35:00,63.7,48.2,29.69,East,86,0.0,10.0,57,0.00,,---,0.00,VWS V14.00,2013-04-02 02:35:00,
2013-04-01 21:36:00,63.7,48.2,29.69,East,86,0.0,10.0,57,0.00,,---,0.00,VWS V14.00,2013-04-02 02:36:00,
2013-04-01 21:40:00,63.2,47.7,29.69,East,85,0.0,10.0,57,0.00,,---,0.00,VWS V14.00,2013-04-02 02:40:00,
2013-04-01 21:41:00,63.2,48.7,29.69,East,85,0.0,10.0,59,0.00,,---,0.00,VWS V14.00,2013-04-02 02:41:00,
2013-04-01 21:45:00,62.9,49.3,29.68,East,86,0.0,10.0,61,0.00,,---,0.00,VWS V14.00,2013-04-02 02:45:00,
2013-04-01 21:46:00,62.9,49.3,29.68,East,86,0.0,10.0,61,0.00,,---,0.00,VWS V14.00,2013-04-02 02:46:00,
2013-04-01 21:47:00,62.7,49.9,29.68,East,97,5.0,12.0,63,0.00,,---,0.00,VWS V14.00,2013-04-02 02:47:00,
2013-04-01 21:50:00,62.4,49.2,29.68,East,95,0.0,12.0,62,0.00,,---,0.00,VWS V14.00,2013-04-02 02:50:00,
2013-04-01 21:51:00,62.4,49.2,29.68,East,95,0.0,12.0,62,0.00,,---,0.00,VWS V14.00,2013-04-02 02:51:00,
2013-04-01 21:52:00,62.4,49.2,29.68,East,90,7.0,12.0,62,0.00,,---,0.00,VWS V14.00,2013-04-02 02:52:00,
2013-04-01 21:55:00,62.1,49.4,29.68,East,79,0.0,12.0,63,0.00,,---,0.00,VWS V14.00,2013-04-02 02:55:00,
2013-04-01 21:56:00,62.1,49.4,29.68,East,79,0.0,12.0,63,0.00,,---,0.00,VWS V14.00,2013-04-02 02:56:00,
2013-04-01 21:57:00,62.1,49.4,29.68,East,80,2.0,12.0,63,0.00,,---,0.00,VWS V14.00,2013-04-02 02:57:00,
2013-04-01 22:00:00,61.8,49.1,29.68,East,80,0.0,6.0,63,0.00,,---,0.00,VWS V14.00,2013-04-02 03:00:00,
2013-04-01 22:01:00,61.8,49.1,29.68,East,80,0.0,6.0,63,0.00,,---,0.00,VWS V14.00,2013-04-02 03:01:00,
2013-04-01 22:03:00,61.8,49.1,29.68,East,80,0.0,6.0,63,0.00,,---,0.00,VWS V14.00,2013-04-02 03:03:00,
2013-04-01 22:05:00,61.5,48.8,29.68,East,80,0.0,6.0,63,0.00,,---,0.00,VWS V14.00,2013-04-02 03:05:00,
2013-04-01 22:06:00,61.5,48.8,29.68,East,80,0.0,6.0,63,0.00,,---,0.00,VWS V14.00,2013-04-02 03:06:00,
2013-04-01 22:08:00,61.5,48.8,29.68,East,80,0.0,6.0,63,0.00,,---,0.00,VWS V14.00,2013-04-02 03:08:00,
2013-04-01 22:10:00,61.3,48.6,29.68,East,80,0.0,6.0,63,0.00,,---,0.00,VWS V14.00,2013-04-02 03:10:00,
2013-04-01 22:11:00,61.3,48.6,29.68,East,80,0.0,6.0,63,0.00,,---,0.00,VWS V14.00,2013-04-02 03:11:00,
2013-04-01 22:13:00,61.2,48.5,29.68,East,80,0.0,6.0,63,0.00,,---,0.00,VWS V14.00,2013-04-02 03:13:00,
2013-04-01 22:16:00,61.2,47.7,29.66,East,80,0.0,6.0,61,0.00,,---,0.00,VWS V14.00,2013-04-02 03:16:00,
2013-04-01 22:17:00,61.0,47.5,29.66,East,80,0.0,6.0,61,0.00,,---,0.00,VWS V14.00,2013-04-02 03:17:00,
2013-04-01 22:18:00,61.0,47.5,29.66,East,80,0.0,6.0,61,0.00,,---,0.00,VWS V14.00,2013-04-02 03:18:00,
2013-04-01 22:21:00,60.9,47.4,29.66,East,80,0.0,6.0,61,0.00,,---,0.00,VWS V14.00,2013-04-02 03:21:00,
2013-04-01 22:22:00,60.9,47.4,29.66,East,80,0.0,6.0,61,0.00,,---,0.00,VWS V14.00,2013-04-02 03:22:00,
2013-04-01 22:23:00,60.9,47.8,29.66,East,80,0.0,6.0,62,0.00,,---,0.00,VWS V14.00,2013-04-02 03:23:00,
2013-04-01 22:27:00,60.5,47.0,29.66,East,80,0.0,6.0,61,0.00,,---,0.00,VWS V14.00,2013-04-02 03:27:00,
2013-04-01 22:28:00,60.5,47.0,29.66,East,80,0.0,6.0,61,0.00,,---,0.00,VWS V14.00,2013-04-02 03:28:00,
2013-04-01 22:32:00,60.4,46.9,29.68,East,80,0.0,0.0,61,0.00,,---,0.00,VWS V14.00,2013-04-02 03:32:00,
2013-04-01 22:33:00,60.4,46.9,29.68,East,80,0.0,0.0,61,0.00,,---,0.00,VWS V14.00,2013-04-02 03:33:00,